sensor_id;sensor_type;location;lat;lon;timestamp;pressure;altitude;pressure_sealevel;temperature;humidity
7309;BME280;3695;53.330;9.876;2024-02-15T00:00:10;100543.72;;;13.80;nan
7309;BME280;3695;53.330;9.876;2024-02-15T00:02:37;100545.75;;;14.15;nan
7309;BME280;3695;53.330;9.876;2024-02-15T00:05:05;100538.94;;;14.56;nan
7309;BME280;3695;53.330;9.876;2024-02-15T00:07:33;100546.03;;;14.79;nan
7309;BME280;3695;53.330;9.876;2024-02-15T00:10:00;100541.66;;;14.85;nan
7309;BME280;3695;53.330;9.876;2024-02-15T00:12:29;100539.91;;;14.86;nan
7309;BME280;3695;53.330;9.876;2024-02-15T00:14:55;100542.59;;;14.93;nan
7309;BME280;3695;53.330;9.876;2024-02-15T00:17:23;100551.34;;;14.79;nan
7309;BME280;3695;53.330;9.876;2024-02-15T00:19:50;100543.44;;;14.85;nan
7309;BME280;3695;53.330;9.876;2024-02-15T00:22:18;100543.41;;;14.83;nan
7309;BME280;3695;53.330;9.876;2024-02-15T00:24:46;100544.34;;;14.93;nan
7309;BME280;3695;53.330;9.876;2024-02-15T00:27:14;100557.56;;;14.87;nan
7309;BME280;3695;53.330;9.876;2024-02-15T00:29:40;100549.63;;;14.96;nan
7309;BME280;3695;53.330;9.876;2024-02-15T00:32:08;100548.75;;;15.01;nan
7309;BME280;3695;53.330;9.876;2024-02-15T00:34:35;100545.22;;;14.93;nan
7309;BME280;3695;53.330;9.876;2024-02-15T00:37:02;100548.78;;;15.06;nan
7309;BME280;3695;53.330;9.876;2024-02-15T00:39:31;100548.75;;;14.94;nan
7309;BME280;3695;53.330;9.876;2024-02-15T00:41:57;100548.78;;;15.04;nan
7309;BME280;3695;53.330;9.876;2024-02-15T00:44:25;100549.63;;;14.96;nan
7309;BME280;3695;53.330;9.876;2024-02-15T00:46:52;100555.81;;;14.98;nan
7309;BME280;3695;53.330;9.876;2024-02-15T00:49:18;100548.75;;;15.03;nan
7309;BME280;3695;53.330;9.876;2024-02-15T00:51:46;100548.78;;;15.04;nan
7309;BME280;3695;53.330;9.876;2024-02-15T00:54:14;100561.09;;;14.96;nan
7309;BME280;3695;53.330;9.876;2024-02-15T00:56:41;100554.06;;;14.98;nan
7309;BME280;3695;53.330;9.876;2024-02-15T00:59:08;100553.19;;;15.07;nan
7309;BME280;3695;53.330;9.876;2024-02-15T01:01:35;100557.63;;;15.06;nan
7309;BME280;3695;53.330;9.876;2024-02-15T01:04:03;100556.69;;;14.97;nan
7309;BME280;3695;53.330;9.876;2024-02-15T01:06:30;100556.69;;;14.94;nan
7309;BME280;3695;53.330;9.876;2024-02-15T01:08:58;100560.25;;;15.11;nan
7309;BME280;3695;53.330;9.876;2024-02-15T01:11:26;100554.06;;;14.98;nan
7309;BME280;3695;53.330;9.876;2024-02-15T01:13:55;100563.78;;;15.15;nan
7309;BME280;3695;53.330;9.876;2024-02-15T01:16:21;100564.66;;;15.14;nan
7309;BME280;3695;53.330;9.876;2024-02-15T01:18:50;100560.25;;;15.05;nan
7309;BME280;3695;53.330;9.876;2024-02-15T01:21:16;100558.47;;;15.07;nan
7309;BME280;3695;53.330;9.876;2024-02-15T01:23:44;100570.00;;;15.18;nan
7309;BME280;3695;53.330;9.876;2024-02-15T01:26:11;100551.41;;;15.03;nan
7309;BME280;3695;53.330;9.876;2024-02-15T01:28:40;100553.19;;;15.04;nan
7309;BME280;3695;53.330;9.876;2024-02-15T01:31:10;100554.94;;;15.03;nan
7309;BME280;3695;53.330;9.876;2024-02-15T01:33:37;100554.97;;;15.14;nan
7309;BME280;3695;53.330;9.876;2024-02-15T01:36:04;100566.44;;;15.10;nan
7309;BME280;3695;53.330;9.876;2024-02-15T01:38:31;100558.47;;;15.07;nan
7309;BME280;3695;53.330;9.876;2024-02-15T01:40:57;100555.84;;;15.10;nan
7309;BME280;3695;53.330;9.876;2024-02-15T01:43:24;100556.72;;;15.04;nan
7309;BME280;3695;53.330;9.876;2024-02-15T01:45:50;100557.59;;;15.00;nan
7309;BME280;3695;53.330;9.876;2024-02-15T01:48:19;100552.28;;;15.03;nan
7309;BME280;3695;53.330;9.876;2024-02-15T01:50:46;100564.69;;;15.21;nan
7309;BME280;3695;53.330;9.876;2024-02-15T01:53:13;100558.50;;;15.10;nan
7309;BME280;3695;53.330;9.876;2024-02-15T01:55:40;100559.38;;;15.15;nan
7309;BME280;3695;53.330;9.876;2024-02-15T01:58:07;100557.59;;;15.10;nan
7309;BME280;3695;53.330;9.876;2024-02-15T02:00:34;100552.31;;;15.00;nan
7309;BME280;3695;53.330;9.876;2024-02-15T02:03:05;100554.09;;;15.20;nan
7309;BME280;3695;53.330;9.876;2024-02-15T02:05:34;100549.69;;;15.23;nan
7309;BME280;3695;53.330;9.876;2024-02-15T02:08:00;100562.03;;;15.15;nan
7309;BME280;3695;53.330;9.876;2024-02-15T02:10:29;100558.50;;;15.16;nan
7309;BME280;3695;53.330;9.876;2024-02-15T02:12:58;100556.72;;;15.15;nan
7309;BME280;3695;53.330;9.876;2024-02-15T02:15:25;100556.75;;;15.17;nan
7309;BME280;3695;53.330;9.876;2024-02-15T02:17:52;100555.84;;;15.21;nan
7309;BME280;3695;53.330;9.876;2024-02-15T02:20:18;100556.75;;;15.17;nan
7309;BME280;3695;53.330;9.876;2024-02-15T02:22:48;100553.22;;;15.16;nan
7309;BME280;3695;53.330;9.876;2024-02-15T02:25:18;100555.84;;;15.16;nan
7309;BME280;3695;53.330;9.876;2024-02-15T02:27:45;100553.22;;;15.22;nan
7309;BME280;3695;53.330;9.876;2024-02-15T02:30:15;100558.50;;;15.16;nan
7309;BME280;3695;53.330;9.876;2024-02-15T02:32:44;100557.59;;;15.14;nan
7309;BME280;3695;53.330;9.876;2024-02-15T02:35:10;100566.44;;;15.21;nan
7309;BME280;3695;53.330;9.876;2024-02-15T02:37:38;100563.78;;;15.13;nan
7309;BME280;3695;53.330;9.876;2024-02-15T02:40:05;100564.72;;;15.24;nan
7309;BME280;3695;53.330;9.876;2024-02-15T02:42:35;100557.63;;;15.16;nan
7309;BME280;3695;53.330;9.876;2024-02-15T02:45:01;100558.50;;;15.19;nan
7309;BME280;3695;53.330;9.876;2024-02-15T02:47:28;100557.66;;;15.25;nan
7309;BME280;3695;53.330;9.876;2024-02-15T02:49:54;100561.16;;;15.33;nan
7309;BME280;3695;53.330;9.876;2024-02-15T02:52:21;100547.94;;;15.30;nan
7309;BME280;3695;53.330;9.876;2024-02-15T02:54:48;100547.00;;;15.08;nan
7309;BME280;3695;53.330;9.876;2024-02-15T02:57:14;100541.69;;;15.02;nan
7309;BME280;3695;53.330;9.876;2024-02-15T02:59:42;100539.09;;;15.17;nan
7309;BME280;3695;53.330;9.876;2024-02-15T03:02:08;100549.69;;;15.20;nan
7309;BME280;3695;53.330;9.876;2024-02-15T03:04:35;100542.63;;;15.18;nan
7309;BME280;3695;53.330;9.876;2024-02-15T03:07:05;100540.78;;;14.89;nan
7309;BME280;3695;53.330;9.876;2024-02-15T03:09:32;100547.91;;;15.25;nan
7309;BME280;3695;53.330;9.876;2024-02-15T03:11:59;100555.88;;;15.30;nan
7309;BME280;3695;53.330;9.876;2024-02-15T03:14:26;100553.19;;;15.19;nan
7309;BME280;3695;53.330;9.876;2024-02-15T03:16:56;100553.22;;;15.37;nan
7309;BME280;3695;53.330;9.876;2024-02-15T03:19:23;100553.22;;;15.16;nan
7309;BME280;3695;53.330;9.876;2024-02-15T03:21:51;100542.56;;;14.96;nan
7309;BME280;3695;53.330;9.876;2024-02-15T03:24:18;100555.84;;;15.21;nan
7309;BME280;3695;53.330;9.876;2024-02-15T03:26:44;100562.06;;;15.24;nan
7309;BME280;3695;53.330;9.876;2024-02-15T03:29:11;100558.53;;;15.33;nan
7309;BME280;3695;53.330;9.876;2024-02-15T03:31:37;100567.38;;;15.30;nan
7309;BME280;3695;53.330;9.876;2024-02-15T03:34:05;100569.03;;;14.92;nan
7309;BME280;3695;53.330;9.876;2024-02-15T03:36:32;100564.72;;;15.33;nan
7309;BME280;3695;53.330;9.876;2024-02-15T03:38:59;100562.03;;;15.26;nan
7309;BME280;3695;53.330;9.876;2024-02-15T03:41:27;100563.81;;;15.25;nan
7309;BME280;3695;53.330;9.876;2024-02-15T03:43:57;100570.00;;;15.32;nan
7309;BME280;3695;53.330;9.876;2024-02-15T03:46:24;100567.38;;;15.30;nan
7309;BME280;3695;53.330;9.876;2024-02-15T03:48:51;100562.06;;;15.24;nan
7309;BME280;3695;53.330;9.876;2024-02-15T03:51:19;100569.97;;;15.20;nan
7309;BME280;3695;53.330;9.876;2024-02-15T03:53:45;100561.09;;;14.93;nan
7309;BME280;3695;53.330;9.876;2024-02-15T03:56:13;100572.66;;;15.24;nan
7309;BME280;3695;53.330;9.876;2024-02-15T03:58:39;100572.63;;;15.27;nan
7309;BME280;3695;53.330;9.876;2024-02-15T04:01:06;100577.97;;;15.35;nan
7309;BME280;3695;53.330;9.876;2024-02-15T04:03:35;100569.03;;;14.93;nan
7309;BME280;3695;53.330;9.876;2024-02-15T04:06:01;100571.75;;;15.22;nan
7309;BME280;3695;53.330;9.876;2024-02-15T04:08:31;100564.69;;;15.21;nan
7309;BME280;3695;53.330;9.876;2024-02-15T04:10:57;100579.72;;;15.33;nan
7309;BME280;3695;53.330;9.876;2024-02-15T04:13:24;100577.06;;;15.30;nan
7309;BME280;3695;53.330;9.876;2024-02-15T04:15:50;100574.38;;;15.25;nan
7309;BME280;3695;53.330;9.876;2024-02-15T04:18:18;100580.56;;;15.06;nan
7309;BME280;3695;53.330;9.876;2024-02-15T04:20:45;100571.69;;;14.89;nan
7309;BME280;3695;53.330;9.876;2024-02-15T04:23:12;100577.03;;;15.16;nan
7309;BME280;3695;53.330;9.876;2024-02-15T04:25:40;100584.09;;;15.22;nan
7309;BME280;3695;53.330;9.876;2024-02-15T04:28:09;100580.63;;;15.36;nan
7309;BME280;3695;53.330;9.876;2024-02-15T04:30:35;100579.72;;;15.43;nan
7309;BME280;3695;53.330;9.876;2024-02-15T04:33:04;100585.88;;;15.38;nan
7309;BME280;3695;53.330;9.876;2024-02-15T04:35:30;100588.53;;;15.29;nan
7309;BME280;3695;53.330;9.876;2024-02-15T04:37:57;100592.94;;;15.24;nan
7309;BME280;3695;53.330;9.876;2024-02-15T04:40:24;100593.84;;;15.30;nan
7309;BME280;3695;53.330;9.876;2024-02-15T04:42:52;100600.03;;;15.31;nan
7309;BME280;3695;53.330;9.876;2024-02-15T04:45:18;100605.31;;;15.35;nan
7309;BME280;3695;53.330;9.876;2024-02-15T04:47:47;100597.38;;;15.38;nan
7309;BME280;3695;53.330;9.876;2024-02-15T04:50:17;100593.84;;;15.41;nan
7309;BME280;3695;53.330;9.876;2024-02-15T04:52:44;100591.19;;;15.24;nan
7309;BME280;3695;53.330;9.876;2024-02-15T04:55:13;100607.94;;;15.26;nan
7309;BME280;3695;53.330;9.876;2024-02-15T04:57:40;100600.88;;;15.31;nan
7309;BME280;3695;53.330;9.876;2024-02-15T05:00:09;100601.72;;;15.06;nan
7309;BME280;3695;53.330;9.876;2024-02-15T05:02:38;100604.41;;;15.24;nan
7309;BME280;3695;53.330;9.876;2024-02-15T05:05:06;100606.16;;;15.19;nan
7309;BME280;3695;53.330;9.876;2024-02-15T05:07:33;100605.28;;;15.32;nan
7309;BME280;3695;53.330;9.876;2024-02-15T05:09:59;100603.53;;;15.34;nan
7309;BME280;3695;53.330;9.876;2024-02-15T05:12:31;100607.06;;;15.33;nan
7309;BME280;3695;53.330;9.876;2024-02-15T05:14:58;100610.63;;;15.31;nan
7309;BME280;3695;53.330;9.876;2024-02-15T05:17:26;100610.63;;;15.40;nan
7309;BME280;3695;53.330;9.876;2024-02-15T05:19:55;100607.00;;;15.14;nan
7309;BME280;3695;53.330;9.876;2024-02-15T05:22:24;100612.38;;;15.30;nan
7309;BME280;3695;53.330;9.876;2024-02-15T05:24:54;100617.69;;;15.42;nan
7309;BME280;3695;53.330;9.876;2024-02-15T05:27:20;100607.09;;;15.30;nan
7309;BME280;3695;53.330;9.876;2024-02-15T05:29:48;100594.72;;;15.25;nan
7309;BME280;3695;53.330;9.876;2024-02-15T05:32:18;100603.47;;;15.08;nan
7309;BME280;3695;53.330;9.876;2024-02-15T05:34:46;100592.03;;;15.26;nan
7309;BME280;3695;53.330;9.876;2024-02-15T05:37:13;100598.22;;;15.18;nan
7309;BME280;3695;53.330;9.876;2024-02-15T05:39:41;100587.66;;;15.24;nan
7309;BME280;3695;53.330;9.876;2024-02-15T05:42:07;100595.63;;;15.42;nan
7309;BME280;3695;53.330;9.876;2024-02-15T05:44:35;100589.38;;;15.16;nan
7309;BME280;3695;53.330;9.876;2024-02-15T05:47:02;100594.72;;;15.32;nan
7309;BME280;3695;53.330;9.876;2024-02-15T05:49:29;100590.28;;;15.37;nan
7309;BME280;3695;53.330;9.876;2024-02-15T05:51:57;100589.38;;;15.05;nan
7309;BME280;3695;53.330;9.876;2024-02-15T05:54:23;100602.63;;;15.17;nan
7309;BME280;3695;53.330;9.876;2024-02-15T05:56:50;100602.66;;;15.28;nan
7309;BME280;3695;53.330;9.876;2024-02-15T05:59:19;100613.22;;;15.20;nan
7309;BME280;3695;53.330;9.876;2024-02-15T06:01:46;100596.47;;;15.29;nan
7309;BME280;3695;53.330;9.876;2024-02-15T06:04:14;100596.50;;;15.30;nan
7309;BME280;3695;53.330;9.876;2024-02-15T06:06:42;100600.03;;;15.31;nan
7309;BME280;3695;53.330;9.876;2024-02-15T06:09:10;100605.31;;;15.38;nan
7309;BME280;3695;53.330;9.876;2024-02-15T06:11:36;100606.16;;;15.31;nan
7309;BME280;3695;53.330;9.876;2024-02-15T06:14:03;100607.97;;;15.38;nan
7309;BME280;3695;53.330;9.876;2024-02-15T06:16:31;100608.88;;;15.46;nan
7309;BME280;3695;53.330;9.876;2024-02-15T06:18:58;100601.78;;;15.38;nan
7309;BME280;3695;53.330;9.876;2024-02-15T06:21:24;100619.41;;;15.25;nan
7309;BME280;3695;53.330;9.876;2024-02-15T06:23:51;100617.66;;;15.32;nan
7309;BME280;3695;53.330;9.876;2024-02-15T06:26:19;100611.50;;;15.34;nan
7309;BME280;3695;53.330;9.876;2024-02-15T06:28:46;100604.44;;;15.30;nan
7309;BME280;3695;53.330;9.876;2024-02-15T06:31:31;100607.94;;;15.23;nan
7309;BME280;3695;53.330;9.876;2024-02-15T06:34:15;100601.78;;;15.29;nan
7309;BME280;3695;53.330;9.876;2024-02-15T06:36:59;100608.84;;;15.28;nan
7309;BME280;3695;53.330;9.876;2024-02-15T06:39:43;100616.78;;;15.28;nan
7309;BME280;3695;53.330;9.876;2024-02-15T06:42:13;100613.22;;;15.16;nan
7309;BME280;3695;53.330;9.876;2024-02-15T06:44:42;100607.06;;;15.38;nan
7309;BME280;3695;53.330;9.876;2024-02-15T06:47:08;100607.09;;;15.41;nan
7309;BME280;3695;53.330;9.876;2024-02-15T06:49:36;100610.63;;;15.46;nan
7309;BME280;3695;53.330;9.876;2024-02-15T06:52:05;100616.84;;;15.62;nan
7309;BME280;3695;53.330;9.876;2024-02-15T06:54:32;100620.41;;;15.55;nan
7309;BME280;3695;53.330;9.876;2024-02-15T06:57:01;100613.28;;;15.51;nan
7309;BME280;3695;53.330;9.876;2024-02-15T06:59:29;100616.78;;;15.43;nan
7309;BME280;3695;53.330;9.876;2024-02-15T07:01:57;100617.75;;;15.58;nan
7309;BME280;3695;53.330;9.876;2024-02-15T07:04:23;100616.84;;;15.56;nan
7309;BME280;3695;53.330;9.876;2024-02-15T07:06:51;100614.16;;;15.36;nan
7309;BME280;3695;53.330;9.876;2024-02-15T07:09:19;100612.38;;;15.33;nan
7309;BME280;3695;53.330;9.876;2024-02-15T07:11:48;100617.72;;;15.48;nan
7309;BME280;3695;53.330;9.876;2024-02-15T07:14:15;100616.84;;;15.53;nan
7309;BME280;3695;53.330;9.876;2024-02-15T07:16:45;100620.41;;;15.55;nan
7309;BME280;3695;53.330;9.876;2024-02-15T07:19:13;100618.59;;;15.47;nan
7309;BME280;3695;53.330;9.876;2024-02-15T07:21:40;100615.03;;;15.41;nan
7309;BME280;3695;53.330;9.876;2024-02-15T07:24:07;100624.81;;;15.57;nan
7309;BME280;3695;53.330;9.876;2024-02-15T07:26:35;100623.06;;;15.55;nan
7309;BME280;3695;53.330;9.876;2024-02-15T07:29:02;100628.28;;;15.52;nan
7309;BME280;3695;53.330;9.876;2024-02-15T07:31:31;100620.34;;;15.52;nan
7309;BME280;3695;53.330;9.876;2024-02-15T07:34:00;100622.13;;;15.56;nan
7309;BME280;3695;53.330;9.876;2024-02-15T07:36:26;100621.22;;;15.46;nan
7309;BME280;3695;53.330;9.876;2024-02-15T07:38:53;100621.19;;;15.38;nan
7309;BME280;3695;53.330;9.876;2024-02-15T07:41:23;100620.34;;;15.45;nan
7309;BME280;3695;53.330;9.876;2024-02-15T07:43:50;100616.84;;;15.53;nan
7309;BME280;3695;53.330;9.876;2024-02-15T07:46:19;100615.91;;;15.40;nan
7309;BME280;3695;53.330;9.876;2024-02-15T07:48:47;100622.09;;;15.46;nan
7309;BME280;3695;53.330;9.876;2024-02-15T07:51:16;100620.34;;;15.42;nan
7309;BME280;3695;53.330;9.876;2024-02-15T07:53:43;100631.00;;;15.55;nan
7309;BME280;3695;53.330;9.876;2024-02-15T07:56:10;100628.34;;;15.53;nan
7309;BME280;3695;53.330;9.876;2024-02-15T07:58:38;100617.69;;;15.41;nan
7309;BME280;3695;53.330;9.876;2024-02-15T08:01:06;100617.69;;;15.36;nan
7309;BME280;3695;53.330;9.876;2024-02-15T08:03:33;100617.66;;;15.33;nan
7309;BME280;3695;53.330;9.876;2024-02-15T08:06:00;100615.94;;;15.46;nan
7309;BME280;3695;53.330;9.876;2024-02-15T08:08:28;100615.03;;;15.41;nan
7309;BME280;3695;53.330;9.876;2024-02-15T08:10:54;100627.41;;;15.48;nan
7309;BME280;3695;53.330;9.876;2024-02-15T08:13:21;100629.22;;;15.54;nan
7309;BME280;3695;53.330;9.876;2024-02-15T08:15:53;100616.84;;;15.56;nan
7309;BME280;3695;53.330;9.876;2024-02-15T08:18:19;100627.47;;;15.59;nan
7309;BME280;3695;53.330;9.876;2024-02-15T08:20:46;100621.25;;;15.61;nan
7309;BME280;3695;53.330;9.876;2024-02-15T08:23:13;100616.84;;;15.56;nan
7309;BME280;3695;53.330;9.876;2024-02-15T08:25:40;100620.38;;;15.58;nan
7309;BME280;3695;53.330;9.876;2024-02-15T08:28:07;100620.41;;;15.61;nan
7309;BME280;3695;53.330;9.876;2024-02-15T08:30:34;100614.22;;;15.57;nan
7309;BME280;3695;53.330;9.876;2024-02-15T08:33:02;100617.75;;;15.71;nan
7309;BME280;3695;53.330;9.876;2024-02-15T08:35:29;100619.53;;;15.81;nan
7309;BME280;3695;53.330;9.876;2024-02-15T08:37:55;100622.19;;;15.78;nan
7309;BME280;3695;53.330;9.876;2024-02-15T08:40:21;100614.25;;;15.78;nan
7309;BME280;3695;53.330;9.876;2024-02-15T08:42:51;100609.81;;;15.88;nan
7309;BME280;3695;53.330;9.876;2024-02-15T08:45:18;100611.59;;;15.97;nan
7309;BME280;3695;53.330;9.876;2024-02-15T08:47:45;100614.22;;;15.94;nan
7309;BME280;3695;53.330;9.876;2024-02-15T08:50:11;100608.94;;;15.89;nan
7309;BME280;3695;53.330;9.876;2024-02-15T08:52:39;100615.97;;;15.79;nan
7309;BME280;3695;53.330;9.876;2024-02-15T08:55:06;100611.56;;;15.86;nan
7309;BME280;3695;53.330;9.876;2024-02-15T08:57:34;100612.47;;;16.02;nan
7309;BME280;3695;53.330;9.876;2024-02-15T09:00:04;100609.81;;;15.94;nan
7309;BME280;3695;53.330;9.876;2024-02-15T09:02:35;100611.56;;;15.80;nan
7309;BME280;3695;53.330;9.876;2024-02-15T09:05:01;100607.16;;;15.70;nan
7309;BME280;3695;53.330;9.876;2024-02-15T09:07:28;100610.69;;;15.75;nan
7309;BME280;3695;53.330;9.876;2024-02-15T09:09:55;100620.41;;;15.73;nan
7309;BME280;3695;53.330;9.876;2024-02-15T09:12:22;100622.16;;;15.80;nan
7309;BME280;3695;53.330;9.876;2024-02-15T09:14:49;100619.53;;;15.75;nan
7309;BME280;3695;53.330;9.876;2024-02-15T09:17:17;100616.88;;;15.86;nan
7309;BME280;3695;53.330;9.876;2024-02-15T09:19:43;100618.63;;;15.87;nan
7309;BME280;3695;53.330;9.876;2024-02-15T09:22:14;100615.13;;;15.79;nan
7309;BME280;3695;53.330;9.876;2024-02-15T09:24:40;100612.47;;;15.73;nan
7309;BME280;3695;53.330;9.876;2024-02-15T09:27:07;100618.63;;;15.75;nan
7309;BME280;3695;53.330;9.876;2024-02-15T09:29:37;100611.59;;;15.78;nan
7309;BME280;3695;53.330;9.876;2024-02-15T09:32:05;100616.88;;;15.72;nan
7309;BME280;3695;53.330;9.876;2024-02-15T09:34:33;100614.22;;;15.74;nan
7309;BME280;3695;53.330;9.876;2024-02-15T09:37:00;100616.88;;;15.75;nan
7309;BME280;3695;53.330;9.876;2024-02-15T09:39:26;100607.16;;;15.68;nan
7309;BME280;3695;53.330;9.876;2024-02-15T09:41:53;100624.78;;;15.62;nan
7309;BME280;3695;53.330;9.876;2024-02-15T09:44:23;100625.69;;;15.80;nan
7309;BME280;3695;53.330;9.876;2024-02-15T09:46:58;100622.19;;;15.78;nan
7309;BME280;3695;53.330;9.876;2024-02-15T09:49:29;100623.94;;;15.87;nan
7309;BME280;3695;53.330;9.876;2024-02-15T09:51:58;100620.41;;;15.94;nan
7309;BME280;3695;53.330;9.876;2024-02-15T09:54:25;100608.94;;;16.03;nan
7309;BME280;3695;53.330;9.876;2024-02-15T09:56:52;100615.09;;;15.94;nan
7309;BME280;3695;53.330;9.876;2024-02-15T09:59:20;100613.31;;;16.04;nan
7309;BME280;3695;53.330;9.876;2024-02-15T10:01:47;100612.44;;;15.99;nan
7309;BME280;3695;53.330;9.876;2024-02-15T10:04:15;100624.81;;;16.06;nan
7309;BME280;3695;53.330;9.876;2024-02-15T10:06:41;100619.53;;;16.00;nan
7309;BME280;3695;53.330;9.876;2024-02-15T10:09:25;100618.63;;;15.93;nan
7309;BME280;3695;53.330;9.876;2024-02-15T10:11:54;100622.16;;;15.92;nan
7309;BME280;3695;53.330;9.876;2024-02-15T10:14:22;100622.19;;;16.00;nan
7309;BME280;3695;53.330;9.876;2024-02-15T10:16:48;100623.06;;;16.03;nan
7309;BME280;3695;53.330;9.876;2024-02-15T10:19:15;100629.25;;;16.02;nan
7309;BME280;3695;53.330;9.876;2024-02-15T10:21:42;100626.59;;;16.08;nan
7309;BME280;3695;53.330;9.876;2024-02-15T10:24:09;100618.63;;;16.11;nan
7309;BME280;3695;53.330;9.876;2024-02-15T10:26:37;100621.28;;;16.19;nan
7309;BME280;3695;53.330;9.876;2024-02-15T10:29:10;100612.44;;;16.14;nan
7309;BME280;3695;53.330;9.876;2024-02-15T10:31:38;100608.00;;;16.23;nan
7309;BME280;3695;53.330;9.876;2024-02-15T10:34:06;100615.97;;;16.10;nan
7309;BME280;3695;53.330;9.876;2024-02-15T10:36:34;100605.34;;;16.16;nan
7309;BME280;3695;53.330;9.876;2024-02-15T10:39:11;100608.88;;;16.24;nan
7309;BME280;3695;53.330;9.876;2024-02-15T10:41:43;100614.19;;;16.18;nan
7309;BME280;3695;53.330;9.876;2024-02-15T10:44:16;100609.81;;;16.15;nan
7309;BME280;3695;53.330;9.876;2024-02-15T10:46:47;100609.75;;;16.21;nan
7309;BME280;3695;53.330;9.876;2024-02-15T10:49:17;100600.94;;;16.22;nan
7309;BME280;3695;53.330;9.876;2024-02-15T10:51:44;100600.94;;;16.19;nan
7309;BME280;3695;53.330;9.876;2024-02-15T10:54:22;100600.94;;;16.25;nan
7309;BME280;3695;53.330;9.876;2024-02-15T10:57:00;100604.44;;;16.27;nan
7309;BME280;3695;53.330;9.876;2024-02-15T10:59:32;100600.94;;;16.24;nan
7309;BME280;3695;53.330;9.876;2024-02-15T11:02:08;100595.63;;;16.22;nan
7309;BME280;3695;53.330;9.876;2024-02-15T11:04:39;100594.75;;;16.25;nan
7309;BME280;3695;53.330;9.876;2024-02-15T11:07:08;100592.09;;;16.22;nan
7309;BME280;3695;53.330;9.876;2024-02-15T11:09:37;100591.19;;;16.21;nan
7309;BME280;3695;53.330;9.876;2024-02-15T11:12:07;100589.47;;;16.20;nan
7309;BME280;3695;53.330;9.876;2024-02-15T11:14:34;100578.84;;;16.11;nan
7309;BME280;3695;53.330;9.876;2024-02-15T11:17:01;100586.84;;;16.02;nan
7309;BME280;3695;53.330;9.876;2024-02-15T11:19:45;100587.69;;;16.10;nan
7309;BME280;3695;53.330;9.876;2024-02-15T11:22:13;100582.38;;;16.22;nan
7309;BME280;3695;53.330;9.876;2024-02-15T11:24:46;100578.88;;;16.08;nan
7309;BME280;3695;53.330;9.876;2024-02-15T11:27:23;100570.94;;;16.08;nan
7309;BME280;3695;53.330;9.876;2024-02-15T11:29:51;100572.69;;;16.15;nan
7309;BME280;3695;53.330;9.876;2024-02-15T11:32:36;100568.25;;;15.98;nan
7309;BME280;3695;53.330;9.876;2024-02-15T11:35:05;100561.19;;;16.07;nan
7309;BME280;3695;53.330;9.876;2024-02-15T11:38:06;100562.94;;;16.10;nan
7309;BME280;3695;53.330;9.876;2024-02-15T11:41:00;100561.19;;;16.07;nan
7309;BME280;3695;53.330;9.876;2024-02-15T11:43:46;100559.41;;;16.17;nan
7309;BME280;3695;53.330;9.876;2024-02-15T11:46:15;100560.31;;;16.11;nan
7309;BME280;3695;53.330;9.876;2024-02-15T11:48:43;100555.91;;;16.03;nan
7309;BME280;3695;53.330;9.876;2024-02-15T11:51:24;100550.63;;;15.94;nan
7309;BME280;3695;53.330;9.876;2024-02-15T11:54:01;100552.38;;;16.02;nan
7309;BME280;3695;53.330;9.876;2024-02-15T11:56:31;100548.84;;;16.00;nan
7309;BME280;3695;53.330;9.876;2024-02-15T11:59:04;100545.28;;;16.00;nan
7309;BME280;3695;53.330;9.876;2024-02-15T12:01:31;100543.53;;;16.09;nan
7309;BME280;3695;53.330;9.876;2024-02-15T12:04:15;100540.88;;;16.15;nan
7309;BME280;3695;53.330;9.876;2024-02-15T12:07:00;100545.28;;;16.21;nan
7309;BME280;3695;53.330;9.876;2024-02-15T12:09:44;100540.88;;;16.09;nan
7309;BME280;3695;53.330;9.876;2024-02-15T12:12:29;100539.13;;;16.02;nan
7309;BME280;3695;53.330;9.876;2024-02-15T12:15:14;100534.72;;;16.03;nan
7309;BME280;3695;53.330;9.876;2024-02-15T12:18:13;100539.13;;;16.08;nan
7309;BME280;3695;53.330;9.876;2024-02-15T12:21:14;100540.88;;;15.94;nan
7309;BME280;3695;53.330;9.876;2024-02-15T12:23:42;100537.38;;;15.97;nan
7309;BME280;3695;53.330;9.876;2024-02-15T12:26:10;100532.06;;;15.97;nan
7309;BME280;3695;53.330;9.876;2024-02-15T12:28:40;100535.56;;;16.05;nan
7309;BME280;3695;53.330;9.876;2024-02-15T12:31:09;100532.94;;;16.03;nan
7309;BME280;3695;53.330;9.876;2024-02-15T12:33:38;100532.03;;;16.07;nan
7309;BME280;3695;53.330;9.876;2024-02-15T12:36:05;100526.75;;;15.92;nan
7309;BME280;3695;53.330;9.876;2024-02-15T12:38:33;100524.13;;;15.95;nan
7309;BME280;3695;53.330;9.876;2024-02-15T12:41:03;100532.06;;;15.86;nan
7309;BME280;3695;53.330;9.876;2024-02-15T12:43:29;100528.53;;;15.90;nan
7309;BME280;3695;53.330;9.876;2024-02-15T12:45:56;100527.63;;;15.94;nan
7309;BME280;3695;53.330;9.876;2024-02-15T12:48:24;100524.09;;;16.00;nan
7309;BME280;3695;53.330;9.876;2024-02-15T12:50:52;100532.97;;;15.85;nan
7309;BME280;3695;53.330;9.876;2024-02-15T12:53:22;100526.75;;;15.98;nan
7309;BME280;3695;53.330;9.876;2024-02-15T12:55:53;100529.41;;;15.97;nan
7309;BME280;3695;53.330;9.876;2024-02-15T12:58:21;100523.16;;;16.23;nan
7309;BME280;3695;53.330;9.876;2024-02-15T13:00:50;100519.66;;;16.06;nan
7309;BME280;3695;53.330;9.876;2024-02-15T13:03:16;100532.94;;;16.02;nan
7309;BME280;3695;53.330;9.876;2024-02-15T13:05:44;100526.75;;;15.98;nan
7309;BME280;3695;53.330;9.876;2024-02-15T13:08:12;100519.69;;;16.03;nan
7309;BME280;3695;53.330;9.876;2024-02-15T13:10:39;100523.22;;;16.01;nan
7309;BME280;3695;53.330;9.876;2024-02-15T13:13:06;100517.03;;;15.93;nan
7309;BME280;3695;53.330;9.876;2024-02-15T13:15:34;100516.16;;;15.95;nan
7309;BME280;3695;53.330;9.876;2024-02-15T13:18:03;100512.63;;;15.90;nan
7309;BME280;3695;53.330;9.876;2024-02-15T13:20:30;100521.47;;;15.86;nan
7309;BME280;3695;53.330;9.876;2024-02-15T13:23:01;100510.88;;;15.83;nan
7309;BME280;3695;53.330;9.876;2024-02-15T13:25:33;100511.72;;;15.99;nan
7309;BME280;3695;53.330;9.876;2024-02-15T13:28:01;100509.94;;;15.98;nan
7309;BME280;3695;53.330;9.876;2024-02-15T13:30:29;100511.69;;;16.11;nan
7309;BME280;3695;53.330;9.876;2024-02-15T13:32:56;100506.38;;;16.18;nan
7309;BME280;3695;53.330;9.876;2024-02-15T13:35:23;100498.47;;;16.03;nan
7309;BME280;3695;53.330;9.876;2024-02-15T13:37:50;100499.34;;;15.98;nan
7309;BME280;3695;53.330;9.876;2024-02-15T13:40:20;100487.00;;;15.97;nan